sensor_id;sensor_type;location;lat;lon;timestamp;pressure;altitude;pressure_sealevel;temperature;humidity
55470;BME280;41334;47.872;16.384;2023-05-09T00:00:15;99732.44;;;8.55;66.30
55470;BME280;41334;47.872;16.384;2023-05-09T00:05:19;99726.94;;;8.55;66.37
55470;BME280;41334;47.872;16.384;2023-05-09T00:10:22;99720.06;;;8.52;65.79
55470;BME280;41334;47.872;16.384;2023-05-09T00:15:24;99724.16;;;8.60;65.94
55470;BME280;41334;47.872;16.384;2023-05-09T00:20:26;99718.91;;;8.74;65.43
55470;BME280;41334;47.872;16.384;2023-05-09T00:25:29;99717.47;;;8.86;65.50
55470;BME280;41334;47.872;16.384;2023-05-09T00:30:31;99709.19;;;8.97;63.63
55470;BME280;41334;47.872;16.384;2023-05-09T00:35:32;99705.91;;;8.89;62.71
55470;BME280;41334;47.872;16.384;2023-05-09T00:40:35;99705.03;;;8.99;62.59
55470;BME280;41334;47.872;16.384;2023-05-09T00:45:37;99700.13;;;8.86;61.93
55470;BME280;41334;47.872;16.384;2023-05-09T00:50:39;99701.78;;;8.82;62.61
55470;BME280;41334;47.872;16.384;2023-05-09T00:55:41;99685.03;;;8.68;63.07
55470;BME280;41334;47.872;16.384;2023-05-09T01:00:43;99696.38;;;8.51;63.61
55470;BME280;41334;47.872;16.384;2023-05-09T01:05:54;99685.97;;;8.38;63.84
55470;BME280;41334;47.872;16.384;2023-05-09T01:11:10;99690.63;;;8.27;64.49
55470;BME280;41334;47.872;16.384;2023-05-09T01:16:22;99700.25;;;8.14;64.59
55470;BME280;41334;47.872;16.384;2023-05-09T01:21:28;99687.88;;;8.12;64.08
55470;BME280;41334;47.872;16.384;2023-05-09T01:26:43;99690.38;;;8.03;64.41
55470;BME280;41334;47.872;16.384;2023-05-09T01:31:49;99684.03;;;8.03;64.33
55470;BME280;41334;47.872;16.384;2023-05-09T01:36:55;99686.53;;;7.94;64.90
55470;BME280;41334;47.872;16.384;2023-05-09T01:42:02;99685.97;;;7.82;64.58
55470;BME280;41334;47.872;16.384;2023-05-09T01:47:06;99681.56;;;7.81;64.43
55470;BME280;41334;47.872;16.384;2023-05-09T01:52:12;99669.47;;;7.67;65.12
55470;BME280;41334;47.872;16.384;2023-05-09T01:57:16;99674.41;;;7.59;65.34
55470;BME280;41334;47.872;16.384;2023-05-09T02:02:19;99680.19;;;7.53;66.03
55470;BME280;41334;47.872;16.384;2023-05-09T02:07:23;99673.03;;;7.47;66.30
55470;BME280;41334;47.872;16.384;2023-05-09T02:12:28;99682.63;;;7.39;66.52
55470;BME280;41334;47.872;16.384;2023-05-09T02:17:30;99675.19;;;7.34;68.23
55470;BME280;41334;47.872;16.384;2023-05-09T02:22:32;99671.63;;;7.24;69.80
55470;BME280;41334;47.872;16.384;2023-05-09T02:27:37;99670.53;;;7.20;70.07
55470;BME280;41334;47.872;16.384;2023-05-09T02:32:42;99663.91;;;7.16;70.62
55470;BME280;41334;47.872;16.384;2023-05-09T02:37:46;99667.50;;;7.16;72.78
55470;BME280;41334;47.872;16.384;2023-05-09T02:42:49;99659.78;;;7.18;73.62
55470;BME280;41334;47.872;16.384;2023-05-09T02:47:51;99664.44;;;7.13;73.85
55470;BME280;41334;47.872;16.384;2023-05-09T02:52:53;99671.31;;;7.10;74.48
55470;BME280;41334;47.872;16.384;2023-05-09T02:57:55;99667.47;;;7.06;76.03
55470;BME280;41334;47.872;16.384;2023-05-09T03:03:14;99661.69;;;7.07;74.49
55470;BME280;41334;47.872;16.384;2023-05-09T03:08:19;99670.78;;;7.18;74.86
55470;BME280;41334;47.872;16.384;2023-05-09T03:13:20;99667.25;;;7.33;75.58
55470;BME280;41334;47.872;16.384;2023-05-09T03:18:23;99671.63;;;7.34;75.78
55470;BME280;41334;47.872;16.384;2023-05-09T03:23:26;99660.94;;;7.32;75.52
55470;BME280;41334;47.872;16.384;2023-05-09T03:28:28;99663.66;;;7.32;75.03
55470;BME280;41334;47.872;16.384;2023-05-09T03:33:34;99661.22;;;7.36;75.26
55470;BME280;41334;47.872;16.384;2023-05-09T03:38:36;99660.66;;;7.44;75.55
55470;BME280;41334;47.872;16.384;2023-05-09T03:43:38;99654.88;;;7.51;75.59
55470;BME280;41334;47.872;16.384;2023-05-09T03:48:40;99658.47;;;7.61;75.57
55470;BME280;41334;47.872;16.384;2023-05-09T03:53:45;99652.97;;;7.77;75.22
55470;BME280;41334;47.872;16.384;2023-05-09T03:58:49;99663.66;;;8.29;73.31
55470;BME280;41334;47.872;16.384;2023-05-09T04:03:54;99663.66;;;9.54;67.21
55470;BME280;41334;47.872;16.384;2023-05-09T04:08:59;99672.72;;;9.15;69.30
55470;BME280;41334;47.872;16.384;2023-05-09T04:14:01;99665.69;;;10.40;65.09
55470;BME280;41334;47.872;16.384;2023-05-09T04:19:09;99667.63;;;10.40;64.38
55470;BME280;41334;47.872;16.384;2023-05-09T04:24:12;99680.09;;;10.03;65.33
55470;BME280;41334;47.872;16.384;2023-05-09T04:29:19;99666.25;;;9.74;66.15
55470;BME280;41334;47.872;16.384;2023-05-09T04:34:27;99672.09;;;9.67;64.88
55470;BME280;41334;47.872;16.384;2023-05-09T04:39:34;99665.63;;;9.82;64.73
55470;BME280;41334;47.872;16.384;2023-05-09T04:44:45;99669.19;;;9.88;64.58
55470;BME280;41334;47.872;16.384;2023-05-09T04:49:51;99670.38;;;10.06;64.31
55470;BME280;41334;47.872;16.384;2023-05-09T04:54:53;99672.59;;;10.38;64.64
55470;BME280;41334;47.872;16.384;2023-05-09T04:59:58;99674.56;;;10.61;62.97
55470;BME280;41334;47.872;16.384;2023-05-09T05:05:00;99673.16;;;10.88;61.71
55470;BME280;41334;47.872;16.384;2023-05-09T05:10:14;99669.72;;;10.96;60.19
55470;BME280;41334;47.872;16.384;2023-05-09T05:15:20;99679.81;;;11.06;59.38
55470;BME280;41334;47.872;16.384;2023-05-09T05:20:23;99667.03;;;11.66;58.51
55470;BME280;41334;47.872;16.384;2023-05-09T05:25:25;99662.13;;;11.82;56.91
55470;BME280;41334;47.872;16.384;2023-05-09T05:30:29;99674.22;;;12.65;53.68
55470;BME280;41334;47.872;16.384;2023-05-09T05:35:35;99661.28;;;12.47;55.05
55470;BME280;41334;47.872;16.384;2023-05-09T05:40:37;99658.72;;;12.64;53.41
55470;BME280;41334;47.872;16.384;2023-05-09T05:45:40;99651.22;;;12.65;53.28
55470;BME280;41334;47.872;16.384;2023-05-09T05:50:47;99658.81;;;12.59;54.59
55470;BME280;41334;47.872;16.384;2023-05-09T05:55:52;99653.56;;;12.85;53.91
55470;BME280;41334;47.872;16.384;2023-05-09T06:00:54;99659.19;;;12.94;53.07
55470;BME280;41334;47.872;16.384;2023-05-09T06:05:57;99657.66;;;12.88;53.20
55470;BME280;41334;47.872;16.384;2023-05-09T06:11:00;99644.00;;;12.77;53.26
55470;BME280;41334;47.872;16.384;2023-05-09T06:16:02;99645.34;;;13.07;52.30
55470;BME280;41334;47.872;16.384;2023-05-09T06:21:07;99637.44;;;13.01;51.58
55470;BME280;41334;47.872;16.384;2023-05-09T06:26:08;99632.88;;;13.19;50.60
55470;BME280;41334;47.872;16.384;2023-05-09T06:31:10;99624.72;;;13.50;49.97
55470;BME280;41334;47.872;16.384;2023-05-09T06:36:12;99615.94;;;13.79;49.23
55470;BME280;41334;47.872;16.384;2023-05-09T06:41:14;99609.25;;;13.80;49.45
55470;BME280;41334;47.872;16.384;2023-05-09T06:46:15;99610.81;;;13.95;49.12
55470;BME280;41334;47.872;16.384;2023-05-09T06:51:17;99609.44;;;13.83;47.56
55470;BME280;41334;47.872;16.384;2023-05-09T06:56:19;99612.59;;;14.22;48.21
55470;BME280;41334;47.872;16.384;2023-05-09T07:01:23;99612.69;;;14.39;47.70
55470;BME280;41334;47.872;16.384;2023-05-09T07:06:25;99606.09;;;14.57;46.75
55470;BME280;41334;47.872;16.384;2023-05-09T07:11:27;99606.19;;;14.92;45.50
55470;BME280;41334;47.872;16.384;2023-05-09T07:16:29;99602.00;;;15.29;44.99
55470;BME280;41334;47.872;16.384;2023-05-09T07:21:31;99592.31;;;15.44;44.68
55470;BME280;41334;47.872;16.384;2023-05-09T07:26:35;99599.72;;;15.40;44.39
55470;BME280;41334;47.872;16.384;2023-05-09T07:31:37;99582.00;;;15.70;43.40
55470;BME280;41334;47.872;16.384;2023-05-09T07:36:39;99577.06;;;15.85;43.36
55470;BME280;41334;47.872;16.384;2023-05-09T07:41:41;99575.78;;;15.65;43.19
55470;BME280;41334;47.872;16.384;2023-05-09T07:46:43;99573.00;;;15.74;43.71
55470;BME280;41334;47.872;16.384;2023-05-09T07:51:45;99564.47;;;15.87;42.97
55470;BME280;41334;47.872;16.384;2023-05-09T07:56:46;99567.94;;;15.67;42.89
55470;BME280;41334;47.872;16.384;2023-05-09T08:01:48;99562.34;;;15.76;42.82
55470;BME280;41334;47.872;16.384;2023-05-09T08:06:50;99561.28;;;16.15;42.98
55470;BME280;41334;47.872;16.384;2023-05-09T08:11:52;99560.75;;;16.89;42.00
55470;BME280;41334;47.872;16.384;2023-05-09T08:16:54;99555.09;;;16.98;41.10
55470;BME280;41334;47.872;16.384;2023-05-09T08:21:56;99547.84;;;17.06;41.11
55470;BME280;41334;47.872;16.384;2023-05-09T08:26:58;99552.19;;;16.94;41.70
55470;BME280;41334;47.872;16.384;2023-05-09T08:32:00;99543.91;;;17.27;40.70
55470;BME280;41334;47.872;16.384;2023-05-09T08:37:03;99535.00;;;18.00;40.26
55470;BME280;41334;47.872;16.384;2023-05-09T08:42:05;99531.56;;;17.95;39.04
55470;BME280;41334;47.872;16.384;2023-05-09T08:47:09;99537.53;;;18.05;39.58
55470;BME280;41334;47.872;16.384;2023-05-09T08:52:12;99518.31;;;18.04;38.57
55470;BME280;41334;47.872;16.384;2023-05-09T08:57:14;99525.44;;;18.26;39.15
55470;BME280;41334;47.872;16.384;2023-05-09T09:02:17;99523.81;;;18.37;39.54
55470;BME280;41334;47.872;16.384;2023-05-09T09:07:20;99514.84;;;18.31;39.36
55470;BME280;41334;47.872;16.384;2023-05-09T09:12:23;99510.56;;;18.71;38.59
55470;BME280;41334;47.872;16.384;2023-05-09T09:17:27;99506.81;;;18.91;37.34
55470;BME280;41334;47.872;16.384;2023-05-09T09:22:32;99520.41;;;19.05;39.46
55470;BME280;41334;47.872;16.384;2023-05-09T09:27:34;99513.19;;;19.32;37.70
55470;BME280;41334;47.872;16.384;2023-05-09T09:32:36;99506.22;;;19.66;36.06
55470;BME280;41334;47.872;16.384;2023-05-09T09:37:40;99508.13;;;19.50;37.23
55470;BME280;41334;47.872;16.384;2023-05-09T09:42:46;99499.50;;;19.71;37.04
55470;BME280;41334;47.872;16.384;2023-05-09T09:47:48;99497.72;;;19.78;36.57
55470;BME280;41334;47.872;16.384;2023-05-09T09:52:54;99502.66;;;19.13;39.04
55470;BME280;41334;47.872;16.384;2023-05-09T09:57:57;99492.63;;;19.40;37.34
55470;BME280;41334;47.872;16.384;2023-05-09T10:02:58;99476.91;;;18.95;37.80
55470;BME280;41334;47.872;16.384;2023-05-09T10:08:03;99481.06;;;19.14;38.53
55470;BME280;41334;47.872;16.384;2023-05-09T10:13:07;99479.97;;;18.90;39.30
55470;BME280;41334;47.872;16.384;2023-05-09T10:18:11;99476.59;;;18.84;39.34
55470;BME280;41334;47.872;16.384;2023-05-09T10:23:16;99471.97;;;18.03;41.06
55470;BME280;41334;47.872;16.384;2023-05-09T10:28:21;99478.47;;;19.21;39.05
55470;BME280;41334;47.872;16.384;2023-05-09T10:33:33;99474.00;;;19.76;38.12
55470;BME280;41334;47.872;16.384;2023-05-09T10:38:41;99474.00;;;19.76;36.42
55470;BME280;41334;47.872;16.384;2023-05-09T10:43:48;99464.25;;;20.33;36.55
55470;BME280;41334;47.872;16.384;2023-05-09T10:48:56;99450.72;;;20.03;35.82
55470;BME280;41334;47.872;16.384;2023-05-09T10:54:12;99461.03;;;19.55;35.80
55470;BME280;41334;47.872;16.384;2023-05-09T10:59:41;99450.75;;;19.59;36.89
55470;BME280;41334;47.872;16.384;2023-05-09T11:04:43;99452.66;;;20.34;34.79
55470;BME280;41334;47.872;16.384;2023-05-09T11:10:14;99448.91;;;19.95;35.83
55470;BME280;41334;47.872;16.384;2023-05-09T11:15:17;99434.06;;;20.10;36.06
55470;BME280;41334;47.872;16.384;2023-05-09T11:20:26;99426.00;;;19.61;36.63
55470;BME280;41334;47.872;16.384;2023-05-09T11:25:29;99420.28;;;19.58;37.26
55470;BME280;41334;47.872;16.384;2023-05-09T11:30:39;99435.13;;;20.22;36.44
55470;BME280;41334;47.872;16.384;2023-05-09T11:35:42;99421.94;;;19.91;34.64
55470;BME280;41334;47.872;16.384;2023-05-09T11:40:44;99418.03;;;20.27;35.62
55470;BME280;41334;47.872;16.384;2023-05-09T11:45:46;99412.13;;;20.48;35.29
55470;BME280;41334;47.872;16.384;2023-05-09T11:50:48;99409.34;;;20.86;34.12
55470;BME280;41334;47.872;16.384;2023-05-09T11:55:50;99404.09;;;20.65;34.26
55470;BME280;41334;47.872;16.384;2023-05-09T12:00:52;99406.41;;;20.79;34.32
55470;BME280;41334;47.872;16.384;2023-05-09T12:05:53;99398.84;;;21.22;33.59
55470;BME280;41334;47.872;16.384;2023-05-09T12:11:07;99398.16;;;21.29;33.46
55470;BME280;41334;47.872;16.384;2023-05-09T12:16:09;99381.88;;;20.76;32.73
55470;BME280;41334;47.872;16.384;2023-05-09T12:21:11;99378.63;;;21.55;33.08
55470;BME280;41334;47.872;16.384;2023-05-09T12:26:13;99366.56;;;21.55;32.86
55470;BME280;41334;47.872;16.384;2023-05-09T12:31:16;99370.84;;;21.26;33.08
55470;BME280;41334;47.872;16.384;2023-05-09T12:36:18;99356.84;;;21.29;33.42
55470;BME280;41334;47.872;16.384;2023-05-09T12:41:20;99350.56;;;21.36;32.26
55470;BME280;41334;47.872;16.384;2023-05-09T12:46:39;99341.66;;;21.53;32.42
55470;BME280;41334;47.872;16.384;2023-05-09T12:51:50;99334.16;;;21.18;31.68
55470;BME280;41334;47.872;16.384;2023-05-09T12:56:52;99323.94;;;20.87;32.37
55470;BME280;41334;47.872;16.384;2023-05-09T13:01:59;99321.84;;;21.04;33.96
55470;BME280;41334;47.872;16.384;2023-05-09T13:07:07;99308.88;;;21.18;31.88
55470;BME280;41334;47.872;16.384;2023-05-09T13:12:10;99311.25;;;20.93;33.28
55470;BME280;41334;47.872;16.384;2023-05-09T13:17:12;99304.13;;;21.00;33.12
55470;BME280;41334;47.872;16.384;2023-05-09T13:22:14;99291.59;;;21.16;32.10
55470;BME280;41334;47.872;16.384;2023-05-09T13:27:17;99289.31;;;21.45;30.90
55470;BME280;41334;47.872;16.384;2023-05-09T13:32:19;99286.13;;;22.00;32.34
55470;BME280;41334;47.872;16.384;2023-05-09T13:37:21;99293.06;;;21.53;31.93
55470;BME280;41334;47.872;16.384;2023-05-09T13:42:25;99278.75;;;20.54;31.90
55470;BME280;41334;47.872;16.384;2023-05-09T13:47:28;99273.56;;;20.56;32.31
55470;BME280;41334;47.872;16.384;2023-05-09T13:52:29;99265.75;;;21.30;32.66
55470;BME280;41334;47.872;16.384;2023-05-09T13:57:31;99262.22;;;20.68;32.77
55470;BME280;41334;47.872;16.384;2023-05-09T14:02:35;99258.63;;;20.71;31.89
55470;BME280;41334;47.872;16.384;2023-05-09T14:07:37;99256.78;;;20.21;33.06
55470;BME280;41334;47.872;16.384;2023-05-09T14:12:39;99242.31;;;20.38;32.35
55470;BME280;41334;47.872;16.384;2023-05-09T14:17:45;99236.50;;;20.27;33.86
55470;BME280;41334;47.872;16.384;2023-05-09T14:22:52;99246.69;;;20.55;32.97
55470;BME280;41334;47.872;16.384;2023-05-09T14:27:55;99235.56;;;20.58;33.86
55470;BME280;41334;47.872;16.384;2023-05-09T14:32:58;99235.97;;;20.41;33.71
55470;BME280;41334;47.872;16.384;2023-05-09T14:38:01;99222.69;;;20.19;33.78
55470;BME280;41334;47.872;16.384;2023-05-09T14:43:03;99235.75;;;20.11;34.75
55470;BME280;41334;47.872;16.384;2023-05-09T14:48:06;99218.78;;;20.42;34.66
55470;BME280;41334;47.872;16.384;2023-05-09T14:53:08;99220.88;;;20.88;32.88
55470;BME280;41334;47.872;16.384;2023-05-09T14:58:11;99228.84;;;21.09;32.92
55470;BME280;41334;47.872;16.384;2023-05-09T15:03:14;99203.59;;;21.32;31.67
55470;BME280;41334;47.872;16.384;2023-05-09T15:08:16;99209.03;;;21.25;32.60
55470;BME280;41334;47.872;16.384;2023-05-09T15:13:18;99201.41;;;21.25;33.39
55470;BME280;41334;47.872;16.384;2023-05-09T15:18:20;99189.47;;;20.82;32.53
55470;BME280;41334;47.872;16.384;2023-05-09T15:23:24;99187.53;;;20.86;33.21
55470;BME280;41334;47.872;16.384;2023-05-09T15:28:26;99183.22;;;20.92;33.76
55470;BME280;41334;47.872;16.384;2023-05-09T15:33:27;99179.13;;;21.09;34.07
55470;BME280;41334;47.872;16.384;2023-05-09T15:38:29;99175.34;;;20.56;35.02
55470;BME280;41334;47.872;16.384;2023-05-09T15:43:31;99178.66;;;19.65;35.57
55470;BME280;41334;47.872;16.384;2023-05-09T15:48:33;99173.34;;;19.44;37.24
55470;BME280;41334;47.872;16.384;2023-05-09T15:53:35;99175.22;;;18.89;38.58
55470;BME280;41334;47.872;16.384;2023-05-09T15:58:37;99161.97;;;18.86;38.94
55470;BME280;41334;47.872;16.384;2023-05-09T16:03:39;99161.13;;;18.69;38.60
55470;BME280;41334;47.872;16.384;2023-05-09T16:08:43;99159.22;;;18.57;37.99
55470;BME280;41334;47.872;16.384;2023-05-09T16:13:46;99155.28;;;18.30;39.16
55470;BME280;41334;47.872;16.384;2023-05-09T16:18:48;99148.22;;;18.49;38.45
55470;BME280;41334;47.872;16.384;2023-05-09T16:23:52;99143.97;;;18.55;37.94
55470;BME280;41334;47.872;16.384;2023-05-09T16:28:54;99141.72;;;18.61;38.10
55470;BME280;41334;47.872;16.384;2023-05-09T16:33:56;99127.66;;;18.73;38.14
55470;BME280;41334;47.872;16.384;2023-05-09T16:39:00;99120.38;;;18.24;39.06
55470;BME280;41334;47.872;16.384;2023-05-09T16:44:06;99123.84;;;18.05;39.75
55470;BME280;41334;47.872;16.384;2023-05-09T16:49:08;99120.19;;;18.17;39.86
55470;BME280;41334;47.872;16.384;2023-05-09T16:54:10;99111.78;;;18.01;39.66
55470;BME280;41334;47.872;16.384;2023-05-09T16:59:12;99108.69;;;17.91;40.05
55470;BME280;41334;47.872;16.384;2023-05-09T17:04:14;99098.16;;;18.16;39.11
55470;BME280;41334;47.872;16.384;2023-05-09T17:09:19;99097.72;;;18.14;38.74
55470;BME280;41334;47.872;16.384;2023-05-09T17:14:20;99099.84;;;18.04;38.80
55470;BME280;41334;47.872;16.384;2023-05-09T17:19:22;99094.94;;;18.14;39.00
55470;BME280;41334;47.872;16.384;2023-05-09T17:24:24;99093.41;;;18.32;38.00
55470;BME280;41334;47.872;16.384;2023-05-09T17:29:27;99101.19;;;18.54;37.92
55470;BME280;41334;47.872;16.384;2023-05-09T17:34:29;99085.94;;;18.36;37.03
55470;BME280;41334;47.872;16.384;2023-05-09T17:39:32;99098.63;;;17.74;38.11
55470;BME280;41334;47.872;16.384;2023-05-09T17:44:34;99089.59;;;17.40;39.92
55470;BME280;41334;47.872;16.384;2023-05-09T17:49:36;99086.53;;;17.17;40.96
55470;BME280;41334;47.872;16.384;2023-05-09T17:54:38;99081.13;;;16.84;42.27
55470;BME280;41334;47.872;16.384;2023-05-09T17:59:40;99084.94;;;16.67;42.25
55470;BME280;41334;47.872;16.384;2023-05-09T18:04:42;99085.34;;;16.45;43.30
55470;BME280;41334;47.872;16.384;2023-05-09T18:09:46;99078.09;;;16.07;44.60
55470;BME280;41334;47.872;16.384;2023-05-09T18:14:47;99072.56;;;15.86;45.06
55470;BME280;41334;47.872;16.384;2023-05-09T18:19:49;99079.03;;;15.66;45.70
55470;BME280;41334;47.872;16.384;2023-05-09T18:24:51;99083.53;;;15.50;46.29
55470;BME280;41334;47.872;16.384;2023-05-09T18:29:53;99079.06;;;15.36;46.66
55470;BME280;41334;47.872;16.384;2023-05-09T18:34:55;99084.59;;;15.24;47.12
55470;BME280;41334;47.872;16.384;2023-05-09T18:39:57;99086.00;;;15.09;47.79
55470;BME280;41334;47.872;16.384;2023-05-09T18:44:59;99090.72;;;14.88;48.48
55470;BME280;41334;47.872;16.384;2023-05-09T18:50:02;99098.66;;;14.68;49.50
55470;BME280;41334;47.872;16.384;2023-05-09T18:55:04;99097.75;;;14.56;49.74
55470;BME280;41334;47.872;16.384;2023-05-09T19:00:07;99100.41;;;14.44;50.91
55470;BME280;41334;47.872;16.384;2023-05-09T19:05:08;99096.97;;;14.38;51.04
55470;BME280;41334;47.872;16.384;2023-05-09T19:10:11;99096.19;;;14.29;51.04
55470;BME280;41334;47.872;16.384;2023-05-09T19:15:14;99104.88;;;14.19;51.45
55470;BME280;41334;47.872;16.384;2023-05-09T19:20:16;99103.44;;;14.12;51.82
55470;BME280;41334;47.872;16.384;2023-05-09T19:25:18;99105.41;;;14.03;52.03
55470;BME280;41334;47.872;16.384;2023-05-09T19:30:20;99097.44;;;13.93;52.83
55470;BME280;41334;47.872;16.384;2023-05-09T19:35:22;99100.88;;;13.81;53.09
55470;BME280;41334;47.872;16.384;2023-05-09T19:40:24;99101.56;;;13.70;53.77
55470;BME280;41334;47.872;16.384;2023-05-09T19:45:26;99099.59;;;13.61;53.87
55470;BME280;41334;47.872;16.384;2023-05-09T19:50:28;99092.28;;;13.48;54.43
55470;BME280;41334;47.872;16.384;2023-05-09T19:55:30;99087.03;;;13.38;55.19
55470;BME280;41334;47.872;16.384;2023-05-09T20:00:33;99089.47;;;13.31;54.77
55470;BME280;41334;47.872;16.384;2023-05-09T20:05:36;99076.75;;;13.30;55.34
55470;BME280;41334;47.872;16.384;2023-05-09T20:10:38;99072.81;;;13.14;55.75
55470;BME280;41334;47.872;16.384;2023-05-09T20:15:40;99071.00;;;13.00;55.72
55470;BME280;41334;47.872;16.384;2023-05-09T20:20:42;99067.72;;;12.90;56.89
55470;BME280;41334;47.872;16.384;2023-05-09T20:25:43;99055.63;;;12.77;57.49
55470;BME280;41334;47.872;16.384;2023-05-09T20:30:46;99055.13;;;12.66;57.67
55470;BME280;41334;47.872;16.384;2023-05-09T20:35:47;99062.44;;;12.53;59.05
55470;BME280;41334;47.872;16.384;2023-05-09T20:40:49;99050.97;;;12.38;58.78
55470;BME280;41334;47.872;16.384;2023-05-09T20:45:51;99040.81;;;12.24;58.74
55470;BME280;41334;47.872;16.384;2023-05-09T20:50:54;99045.81;;;12.14;60.25
55470;BME280;41334;47.872;16.384;2023-05-09T20:56:02;99036.13;;;11.94;59.98
55470;BME280;41334;47.872;16.384;2023-05-09T21:01:05;99025.94;;;11.80;59.76
55470;BME280;41334;47.872;16.384;2023-05-09T21:06:07;99017.41;;;11.68;60.59
55470;BME280;41334;47.872;16.384;2023-05-09T21:11:09;99017.34;;;11.60;60.91
55470;BME280;41334;47.872;16.384;2023-05-09T21:16:11;99025.09;;;11.49;61.11
55470;BME280;41334;47.872;16.384;2023-05-09T21:21:13;99020.47;;;11.36;61.46
55470;BME280;41334;47.872;16.384;2023-05-09T21:26:14;99024.41;;;11.21;61.78
55470;BME280;41334;47.872;16.384;2023-05-09T21:31:18;99017.16;;;11.11;61.99
55470;BME280;41334;47.872;16.384;2023-05-09T21:36:19;99016.09;;;10.98;62.30
55470;BME280;41334;47.872;16.384;2023-05-09T21:41:21;99009.69;;;10.89;62.09
55470;BME280;41334;47.872;16.384;2023-05-09T21:46:23;99002.97;;;10.82;62.31
55470;BME280;41334;47.872;16.384;2023-05-09T21:51:26;99005.31;;;10.74;62.59
55470;BME280;41334;47.872;16.384;2023-05-09T21:56:28;99012.19;;;10.63;62.79
55470;BME280;41334;47.872;16.384;2023-05-09T22:01:30;99013.13;;;10.59;62.69
55470;BME280;41334;47.872;16.384;2023-05-09T22:06:32;98998.50;;;10.58;62.38
55470;BME280;41334;47.872;16.384;2023-05-09T22:11:39;99003.84;;;10.55;63.48
55470;BME280;41334;47.872;16.384;2023-05-09T22:16:41;98992.91;;;10.49;63.55
55470;BME280;41334;47.872;16.384;2023-05-09T22:21:46;98990.53;;;10.43;63.55
55470;BME280;41334;47.872;16.384;2023-05-09T22:26:49;98997.94;;;10.34;63.92
55470;BME280;41334;47.872;16.384;2023-05-09T22:31:51;98996.09;;;10.29;64.17
55470;BME280;41334;47.872;16.384;2023-05-09T22:36:55;98993.94;;;10.26;63.92
55470;BME280;41334;47.872;16.384;2023-05-09T22:41:59;98993.13;;;10.26;64.79
55470;BME280;41334;47.872;16.384;2023-05-09T22:47:03;98988.31;;;10.17;63.75
55470;BME280;41334;47.872;16.384;2023-05-09T22:52:08;98983.19;;;10.11;63.91
55470;BME280;41334;47.872;16.384;2023-05-09T22:57:10;98971.75;;;10.04;65.51
55470;BME280;41334;47.872;16.384;2023-05-09T23:02:12;98970.53;;;9.96;64.92
55470;BME280;41334;47.872;16.384;2023-05-09T23:07:14;98959.91;;;9.89;64.79
55470;BME280;41334;47.872;16.384;2023-05-09T23:12:16;98961.44;;;9.82;64.87
55470;BME280;41334;47.872;16.384;2023-05-09T23:17:18;98956.53;;;9.79;65.25
55470;BME280;41334;47.872;16.384;2023-05-09T23:22:20;98953.34;;;9.71;64.63
55470;BME280;41334;47.872;16.384;2023-05-09T23:27:22;98939.88;;;9.70;66.01
55470;BME280;41334;47.872;16.384;2023-05-09T23:32:24;98939.97;;;9.65;66.26
55470;BME280;41334;47.872;16.384;2023-05-09T23:37:26;98932.19;;;9.53;66.05
55470;BME280;41334;47.872;16.384;2023-05-09T23:42:27;98926.38;;;9.55;65.55
55470;BME280;41334;47.872;16.384;2023-05-09T23:47:29;98915.88;;;9.57;65.00
55470;BME280;41334;47.872;16.384;2023-05-09T23:52:31;98907.69;;;9.52;65.43
55470;BME280;41334;47.872;16.384;2023-05-09T23:57:33;98908.59;;;9.47;66.04
